X  Zatvori METAR podaci zračne luke     EHGG Eelde Airport
Temperatura
18°C Temperatura
18°C Točka rosišta
100% Vlaga



Vjetar
5 KM/S
3 MPS
1 M/S
3 Čvorovi



210°
JJZ
Trenutna situacija

Slaba Sipiti, Slaba Kiša Slaba Sipiti, Slaba Kiša
Tlak zraka 1012.92 (hPa) - 29.91 (inHg)
Vidljivost 2.5 (milje) - 4 (km)
Zračna luka
Kôd zračne luke EHGG

Lokacija: Eelde Airport
Udaljenost: 40 (km)

Metar:
EHGG 101855Z AUTO 21003KT 3900 -DZRA FEW049 18/18 Q1013 REDZ BECMG BR

Vrijeme: 10-09-2021 20:55 CEST